Terminal Aerodrome Forecast
Issued by NWS Cleveland, OH

Home | Current Version | Previous Version | Graphics & Text | Print | Product List | Glossary Off
Versions: 1 2 3 4 5 6 7 8 9 10 11 12 13 14 15 16 17 18 19 20 21 22 23 24 25 26 27 28 29

000
FTUS41 KCLE 030500
TAFTOL
TAF
KTOL 030529Z 0306/0406 16003KT P6SM OVC100
     FM031330 15010KT 6SM -SN BKN050 OVC090
     FM031600 15010KT 4SM -FZRAPL BR BKN015 OVC050
     FM031800 20015KT 2SM -RA BR BKN005 OVC015 WS020/22045KT
     FM040100 25015G25KT 6SM BR SCT005 OVC015=

USA.gov is the U.S. government's official web portal to all federal, state and local government web resources and services.